Greenville, Illinois
Current Conditions -  °F | °C
As of 6:15 PM on Wednesday 22 Oct 2014 (Local Time) from K3LF Reporting Station
Clear Clear  
Wind Chill: 54°   Ceiling: Unl
Heat Index: 54°   Visibility: 10mi
Dew Point: 37°   Wind: 5mph
Humidity: 52%   Direction: 120°ESE
Pressure: 30.22"   Gusts: NA
Location:  38.89°N, 89.41°W
Report Text: K3LF 222315Z AUTO 12004KT 10SM CLR 12/03 A3022 RMK AO2 T01240028
Loading
Personal Weather Stations






























Interactive Weather Map
Tropical Storm Tracking
New forecast layout! Learn more

10-Day Weather Forecast

Advertisements
Track Severe Weather on mobile